Time;durP1;ratioP1;P1;durP2;ratioP2;P2;SDS_P1;SDS_P2;PMS_P1;PMS_P2;Temp;Humidity;BMP_temperature;BMP_pressure;BME280_temperature;BME280_humidity;BME280_pressure;Samples;Min_cycle;Max_cycle;Signal;HPM_P1;HPM_P2
2023/10/31 00:00:45;;;;;;;;;;;;;;;9.14;100.00;99579.72;5097069;28;19919;-94
2023/10/31 00:03:18;;;;;;;;;;;;;;;9.14;100.00;99588.41;5096541;28;19916;-94
2023/10/31 00:05:48;;;;;;;;;;;;;;;9.18;100.00;99592.66;5096028;28;20311;-94
2023/10/31 00:08:14;;;;;;;;;;;;;;;9.17;100.00;99603.16;5079176;28;19915;-93
2023/10/31 00:10:44;;;;;;;;;;;;;;;9.19;100.00;99609.19;5112938;28;20015;-93
2023/10/31 00:13:10;;;;;;;;;;;;;;;9.19;100.00;99602.22;5079751;28;19923;-93
2023/10/31 00:15:35;;;;;;;;;;;;;;;9.21;100.00;99609.16;5095527;28;19911;-94
2023/10/31 00:18:03;;;;;;;;;;;;;;;9.23;100.00;99608.22;5113117;28;20359;-94
2023/10/31 00:20:29;;;;;;;;;;;;;;;9.23;100.00;99610.81;5096286;28;20276;-94
2023/10/31 00:22:59;;;;;;;;;;;;;;;9.24;100.00;99612.56;5112921;28;19912;-93
2023/10/31 00:25:24;;;;;;;;;;;;;;;9.28;100.00;99618.53;5096228;28;20372;-94
2023/10/31 00:27:52;;;;;;;;;;;;;;;9.32;100.00;99620.19;5095705;28;20000;-93
2023/10/31 00:30:18;;;;;;;;;;;;;;;9.33;100.00;99617.53;5096240;28;20404;-94
2023/10/31 00:32:43;;;;;;;;;;;;;;;9.34;100.00;99619.25;5096590;28;20006;-94
2023/10/31 00:35:12;;;;;;;;;;;;;;;9.33;100.00;99627.13;5095969;28;20259;-94
2023/10/31 00:37:39;;;;;;;;;;;;;;;9.34;100.00;99629.72;5095666;28;19916;-93
2023/10/31 00:40:10;;;;;;;;;;;;;;;9.33;100.00;99630.59;5095699;28;19912;-94
2023/10/31 00:42:41;;;;;;;;;;;;;;;9.34;100.00;99634.94;5095644;28;19916;-94
2023/10/31 00:45:09;;;;;;;;;;;;;;;9.34;100.00;99636.72;5095664;28;19918;-94
2023/10/31 00:47:35;;;;;;;;;;;;;;;9.34;100.00;99632.31;5079019;28;19916;-94
2023/10/31 00:50:20;;;;;;;;;;;;;;;9.33;100.00;99643.66;5095582;28;19916;-93
2023/10/31 00:52:45;;;;;;;;;;;;;;;9.31;100.00;99645.47;5095742;28;19916;-94
2023/10/31 00:58:16;;;;;;;;;;;;;;;9.29;100.00;99643.81;5114163;28;19972;-94
2023/10/31 01:00:41;;;;;;;;;;;;;;;9.28;100.00;99652.53;5099576;28;19912;-94
2023/10/31 01:03:09;;;;;;;;;;;;;;;9.29;100.00;99651.63;5100473;28;20543;-94
2023/10/31 01:08:40;;;;;;;;;;;;;;;9.27;100.00;99650.84;5117886;28;19918;-94
2023/10/31 01:11:06;;;;;;;;;;;;;;;9.26;100.00;99656.94;5099546;28;20367;-94
2023/10/31 01:13:34;;;;;;;;;;;;;;;9.27;100.00;99674.38;5117968;28;20040;-94
2023/10/31 01:19:05;;;;;;;;;;;;;;;9.27;100.00;99677.81;5117646;28;19961;-93
2023/10/31 01:24:34;;;;;;;;;;;;;;;9.25;100.00;99682.25;5117488;28;19954;-94
2023/10/31 01:27:00;;;;;;;;;;;;;;;9.25;100.00;99678.75;5098942;28;19918;-94
2023/10/31 01:29:28;;;;;;;;;;;;;;;9.25;100.00;99679.63;5099789;28;19912;-94
2023/10/31 01:31:55;;;;;;;;;;;;;;;9.24;100.00;99683.13;5082834;28;19958;-93
2023/10/31 01:34:20;;;;;;;;;;;;;;;9.23;100.00;99683.16;5099997;28;19920;-93
2023/10/31 01:36:49;;;;;;;;;;;;;;;9.24;100.00;99683.13;5099077;28;20002;-93
2023/10/31 01:39:14;;;;;;;;;;;;;;;9.22;100.00;99684.91;5099384;28;19969;-94
2023/10/31 01:41:46;;;;;;;;;;;;;;;9.23;100.00;99685.78;5098500;28;19924;-93
2023/10/31 01:44:11;;;;;;;;;;;;;;;9.21;100.00;99683.22;5117084;28;19912;-94
2023/10/31 01:46:36;;;;;;;;;;;;;;;9.19;100.00;99687.59;5098946;28;20252;-93
2023/10/31 01:49:02;;;;;;;;;;;;;;;9.19;100.00;99687.59;5081796;28;19923;-94
2023/10/31 01:54:34;;;;;;;;;;;;;;;9.18;100.00;99685.91;5116922;28;19926;-94
2023/10/31 01:57:01;;;;;;;;;;;;;;;9.17;100.00;99689.41;5098399;28;19912;-94
2023/10/31 01:59:32;;;;;;;;;;;;;;;9.21;100.00;99684.94;5099042;28;19934;-94
2023/10/31 02:01:58;;;;;;;;;;;;;;;9.19;100.00;99696.31;5098905;28;20267;-94
2023/10/31 02:04:24;;;;;;;;;;;;;;;9.18;100.00;99697.22;5081361;28;19923;-94
2023/10/31 02:06:49;;;;;;;;;;;;;;;9.23;100.00;99699.69;5098528;28;19915;-94
2023/10/31 02:09:17;;;;;;;;;;;;;;;9.21;100.00;99698.91;5098226;28;20429;-94
2023/10/31 02:11:43;;;;;;;;;;;;;;;9.20;100.00;99694.56;5080782;28;20428;-93
2023/10/31 02:14:08;;;;;;;;;;;;;;;9.21;100.00;99693.66;5098265;28;19912;-94
2023/10/31 02:16:36;;;;;;;;;;;;;;;9.22;100.00;99697.97;5097973;28;19919;-94
2023/10/31 02:19:08;;;;;;;;;;;;;;;9.21;100.00;99695.41;5082365;28;19916;-93
2023/10/31 02:24:39;;;;;;;;;;;;;;;9.24;100.00;99688.34;5116588;28;19974;-94
2023/10/31 02:27:07;;;;;;;;;;;;;;;9.23;100.00;99688.41;5080321;28;20279;-92
2023/10/31 02:29:32;;;;;;;;;;;;;;;9.24;100.00;99690.09;5098257;28;20002;-94
2023/10/31 02:32:00;;;;;;;;;;;;;;;9.23;100.00;99689.25;5098265;28;19998;-94
2023/10/31 02:34:26;;;;;;;;;;;;;;;9.24;100.00;99688.34;5097941;28;19912;-93
2023/10/31 02:36:51;;;;;;;;;;;;;;;9.25;100.00;99687.47;5097829;28;20283;-93
2023/10/31 02:39:17;;;;;;;;;;;;;;;9.25;100.00;99695.31;5098047;28;19912;-94
2023/10/31 02:41:43;;;;;;;;;;;;;;;9.27;100.00;99690.91;5097722;28;20025;-94
2023/10/31 02:50:14;;;;;;;;;;;;;;;9.32;100.00;99707.34;5115727;28;19966;-94
2023/10/31 02:52:39;;;;;;;;;;;;;;;9.35;100.00;99714.22;5097607;28;19950;-94
2023/10/31 02:55:07;;;;;;;;;;;;;;;9.36;100.00;99716.78;5097370;28;19955;-94
2023/10/31 02:57:32;;;;;;;;;;;;;;;9.36;100.00;99714.19;5098058;28;19918;-94
2023/10/31 03:00:00;;;;;;;;;;;;;;;9.39;100.00;99715.03;5097844;28;19911;-93
2023/10/31 03:02:25;;;;;;;;;;;;;;;9.41;100.00;99719.31;5114412;28;19916;-93
2023/10/31 03:04:50;;;;;;;;;;;;;;;9.44;100.00;99713.13;5097669;28;20308;-93
2023/10/31 03:07:16;;;;;;;;;;;;;;;9.43;100.00;99721.91;5113992;28;20057;-93
2023/10/31 03:09:41;;;;;;;;;;;;;;;9.44;100.00;99715.75;5114131;28;19919;-93
2023/10/31 03:12:09;;;;;;;;;;;;;;;9.44;100.00;99719.25;5114075;28;20386;-94
2023/10/31 03:14:37;;;;;;;;;;;;;;;9.46;100.00;99732.28;5113973;28;19919;-94
2023/10/31 03:17:07;;;;;;;;;;;;;;;9.46;100.00;99730.50;5113870;28;19912;-93
2023/10/31 03:19:32;;;;;;;;;;;;;;;9.46;100.00;99727.03;5114558;28;19919;-93
2023/10/31 03:28:06;;;;;;;;;;;;;;;9.47;100.00;99739.22;5115468;28;19918;-94
2023/10/31 03:33:40;;;;;;;;;;;;;;;9.45;100.00;99751.47;5115253;28;19997;-94
2023/10/31 03:36:08;;;;;;;;;;;;;;;9.42;100.00;99741.94;5114015;28;19911;-94
2023/10/31 03:38:34;;;;;;;;;;;;;;;9.43;100.00;99753.28;5113535;28;20279;-94
2023/10/31 03:41:10;;;;;;;;;;;;;;;9.43;100.00;99761.13;5113501;28;19919;-93
2023/10/31 03:43:35;;;;;;;;;;;;;;;9.42;100.00;99768.09;5114502;28;19956;-94
2023/10/31 03:46:04;;;;;;;;;;;;;;;9.42;100.00;99762.84;5096607;28;19916;-93
2023/10/31 03:48:29;;;;;;;;;;;;;;;9.43;100.00;99763.72;5113560;28;19916;-93
2023/10/31 03:54:06;;;;;;;;;;;;;;;9.43;100.00;99779.41;5114771;28;19970;-93
2023/10/31 03:56:43;;;;;;;;;;;;;;;9.42;100.00;99783.78;5079914;28;19958;-93
2023/10/31 03:59:09;;;;;;;;;;;;;;;9.43;100.00;99776.81;5096552;28;20355;-93
2023/10/31 04:01:37;;;;;;;;;;;;;;;9.44;100.00;99782.00;5096092;28;19982;-94
2023/10/31 04:04:05;;;;;;;;;;;;;;;9.43;100.00;99788.13;5096682;28;19912;-94
2023/10/31 04:06:30;;;;;;;;;;;;;;;9.49;100.00;99794.94;5096053;28;19930;-94
2023/10/31 04:08:58;;;;;;;;;;;;;;;9.45;100.00;99788.06;5096502;28;19915;-94
2023/10/31 04:11:23;;;;;;;;;;;;;;;9.43;100.00;99798.56;5095976;28;19915;-93
2023/10/31 04:19:58;;;;;;;;;;;;;;;9.45;100.00;99807.25;5114228;28;20006;-93
2023/10/31 04:22:23;;;;;;;;;;;;;;;9.47;100.00;99804.59;5096071;28;19912;-94
2023/10/31 04:24:49;;;;;;;;;;;;;;;9.47;100.00;99810.69;5096664;28;19912;-93
2023/10/31 04:27:17;;;;;;;;;;;;;;;9.49;100.00;99814.09;5095940;28;19965;-94
2023/10/31 04:29:42;;;;;;;;;;;;;;;9.47;100.00;99813.28;5112654;28;20019;-93
2023/10/31 04:32:15;;;;;;;;;;;;;;;9.51;100.00;99825.41;5112548;28;20471;-93
2023/10/31 04:34:40;;;;;;;;;;;;;;;9.50;100.00;99820.22;5095749;28;20004;-92
2023/10/31 04:37:06;;;;;;;;;;;;;;;9.53;100.00;99822.75;5112631;28;19924;-93
2023/10/31 04:39:34;;;;;;;;;;;;;;;9.52;100.00;99826.25;5112601;28;19912;-94
2023/10/31 04:41:59;;;;;;;;;;;;;;;9.50;100.00;99820.22;5109104;28;19926;-93
2023/10/31 04:44:30;;;;;;;;;;;;;;;9.50;100.00;99825.44;5109181;28;19915;-94
2023/10/31 04:46:56;;;;;;;;;;;;;;;9.50;100.00;99823.69;5092462;28;19916;-93
2023/10/31 04:49:21;;;;;;;;;;;;;;;9.51;100.00;99829.75;5092222;28;20257;-93
2023/10/31 04:51:50;;;;;;;;;;;;;;;9.52;100.00;99836.72;5093695;28;19916;-94
2023/10/31 04:57:26;;;;;;;;;;;;;;;9.49;100.00;99842.03;5093409;28;19920;-94
2023/10/31 04:59:54;;;;;;;;;;;;;;;9.49;100.00;99844.63;5109545;28;19912;-93
2023/10/31 05:02:21;;;;;;;;;;;;;;;9.49;100.00;99850.72;5092295;28;20260;-93
2023/10/31 05:10:55;;;;;;;;;;;;;;;9.46;100.00;99852.56;5093235;28;20351;-93
2023/10/31 05:13:20;;;;;;;;;;;;;;;9.45;100.00;99846.47;5083091;28;19916;-94
2023/10/31 05:16:04;;;;;;;;;;;;;;;9.45;100.00;99854.31;5072117;28;19966;-93
2023/10/31 05:18:30;;;;;;;;;;;;;;;9.43;100.00;99857.88;5071894;28;19919;-93
2023/10/31 05:20:55;;;;;;;;;;;;;;;9.41;100.00;99854.41;5072200;28;19912;-93
2023/10/31 05:23:23;;;;;;;;;;;;;;;9.38;100.00;99857.09;5071903;28;19960;-93
2023/10/31 05:25:48;;;;;;;;;;;;;;;9.36;100.00;99857.13;5072048;28;19912;-94
2023/10/31 05:28:14;;;;;;;;;;;;;;;9.36;100.00;99857.97;5071747;28;20004;-94
2023/10/31 05:30:39;;;;;;;;;;;;;;;9.34;100.00;99859.78;5072049;28;19924;-94
2023/10/31 05:33:08;;;;;;;;;;;;;;;9.34;100.00;99861.56;5072097;28;19920;-93
2023/10/31 05:35:36;;;;;;;;;;;;;;;9.31;100.00;99854.63;5071954;28;20368;-93
2023/10/31 05:38:01;;;;;;;;;;;;;;;9.29;100.00;99861.63;5072711;28;19920;-93
2023/10/31 05:40:29;;;;;;;;;;;;;;;9.28;100.00;99865.16;5072275;28;20372;-94
2023/10/31 05:42:54;;;;;;;;;;;;;;;9.28;100.00;99869.50;5071882;28;20244;-93
2023/10/31 05:45:20;;;;;;;;;;;;;;;9.26;100.00;99874.78;5073569;28;19923;-93
2023/10/31 05:47:45;;;;;;;;;;;;;;;9.26;100.00;99887.84;5074983;28;19920;-93
2023/10/31 05:50:18;;;;;;;;;;;;;;;9.24;100.00;99889.66;5074879;28;19913;-94
2023/10/31 05:52:47;;;;;;;;;;;;;;;9.24;100.00;99896.59;5058822;28;19928;-93
2023/10/31 05:55:13;;;;;;;;;;;;;;;9.24;100.00;99897.50;5059189;28;20371;-93
2023/10/31 05:57:42;;;;;;;;;;;;;;;9.22;100.00;99896.63;5075068;28;19958;-94
2023/10/31 06:00:10;;;;;;;;;;;;;;;9.23;100.00;99902.75;5076462;28;19912;-93
2023/10/31 06:02:35;;;;;;;;;;;;;;;9.21;100.00;99905.41;5075331;28;19912;-93
2023/10/31 06:05:03;;;;;;;;;;;;;;;9.23;100.00;99907.97;5091631;28;19919;-94
2023/10/31 06:07:28;;;;;;;;;;;;;;;9.22;100.00;99921.94;5075014;28;19912;-93
2023/10/31 06:09:56;;;;;;;;;;;;;;;9.22;100.00;99917.56;5092401;28;19919;-93
2023/10/31 06:12:24;;;;;;;;;;;;;;;9.22;100.00;99917.56;5074535;28;19939;-94
2023/10/31 06:14:49;;;;;;;;;;;;;;;9.22;100.00;99933.25;5074822;28;19912;-93
2023/10/31 06:17:24;;;;;;;;;;;;;;;9.22;100.00;99938.47;5074403;28;20386;-94
2023/10/31 06:19:50;;;;;;;;;;;;;;;9.22;100.00;99938.47;5074776;28;19921;-94
2023/10/31 06:22:16;;;;;;;;;;;;;;;9.25;100.00;99938.44;5074361;28;20254;-93
2023/10/31 06:24:46;;;;;;;;;;;;;;;9.24;100.00;99934.09;5063917;28;19970;-93
2023/10/31 06:27:12;;;;;;;;;;;;;;;9.23;100.00;99940.19;5095678;28;19916;-93
2023/10/31 06:29:37;;;;;;;;;;;;;;;9.23;100.00;99936.75;5094400;28;19980;-93
2023/10/31 06:32:02;;;;;;;;;;;;;;;9.22;100.00;99938.47;5094652;28;19916;-93
2023/10/31 06:34:30;;;;;;;;;;;;;;;9.21;100.00;99949.84;5095231;28;19961;-93
2023/10/31 06:36:59;;;;;;;;;;;;;;;9.21;100.00;99951.56;5094707;28;19938;-93
2023/10/31 06:39:26;;;;;;;;;;;;;;;9.22;100.00;99962.00;5095262;28;19912;-93
2023/10/31 06:41:57;;;;;;;;;;;;;;;9.21;100.00;99957.69;5094210;28;19955;-93
2023/10/31 06:44:30;;;;;;;;;;;;;;;9.22;100.00;99966.38;5094744;28;20367;-93
2023/10/31 06:46:55;;;;;;;;;;;;;;;9.22;100.00;99959.38;5094865;28;19919;-93
2023/10/31 06:49:22;;;;;;;;;;;;;;;9.22;100.00;99964.59;5094555;28;19912;-93
2023/10/31 06:54:52;;;;;;;;;;;;;;;9.23;100.00;99970.72;5095359;28;20449;-94
2023/10/31 06:57:18;;;;;;;;;;;;;;;9.23;100.00;99970.72;5093358;28;19912;-92
2023/10/31 06:59:43;;;;;;;;;;;;;;;9.23;100.00;99975.94;5094512;28;19912;-92
2023/10/31 07:02:17;;;;;;;;;;;;;;;9.23;100.00;99971.56;5093939;28;19947;-93
2023/10/31 07:13:51;;;;;;;;;;;;;;;9.36;100.00;99993.09;5094757;28;19922;-90
2023/10/31 07:16:16;;;;;;;;;;;;;;;9.36;100.00;99993.09;5093378;28;20326;-91
2023/10/31 07:18:41;;;;;;;;;;;;;;;9.40;100.00;99999.16;5110096;28;19916;-91
2023/10/31 07:24:09;;;;;;;;;;;;;;;9.36;100.00;99978.25;5094497;28;19919;-91
2023/10/31 07:26:35;;;;;;;;;;;;;;;9.40;100.00;99984.31;5093006;28;19917;-92
2023/10/31 07:29:00;;;;;;;;;;;;;;;9.46;100.00;99983.31;5075726;28;20276;-90
2023/10/31 07:31:26;;;;;;;;;;;;;;;9.52;100.00;99985.78;5083277;28;19924;-91
2023/10/31 07:33:52;;;;;;;;;;;;;;;9.57;100.00;99981.34;5092748;28;19956;-91
2023/10/31 07:36:20;;;;;;;;;;;;;;;9.61;100.00;99989.97;5076047;28;19916;-92
2023/10/31 07:38:45;;;;;;;;;;;;;;;9.63;100.00;99983.81;5086115;28;19923;-91
2023/10/31 07:41:11;;;;;;;;;;;;;;;9.64;100.00;99988.16;5068106;28;20265;-90
2023/10/31 07:43:36;;;;;;;;;;;;;;;9.65;100.00;99989.00;5072410;28;19965;-91
2023/10/31 07:46:01;;;;;;;;;;;;;;;9.67;100.00;99988.09;5063683;28;19917;-92
2023/10/31 07:48:27;;;;;;;;;;;;;;;9.70;100.00;99987.16;5054213;28;19917;-90
2023/10/31 07:50:52;;;;;;;;;;;;;;;9.73;100.00;99991.47;5060086;28;20326;-91
2023/10/31 07:53:17;;;;;;;;;;;;;;;9.73;100.00;100000.19;5101331;28;19912;-90
2023/10/31 07:55:44;;;;;;;;;;;;;;;9.78;100.00;99994.84;5072960;28;19962;-90
2023/10/31 07:58:09;;;;;;;;;;;;;;;9.81;100.00;99998.25;5087918;28;20287;-90
2023/10/31 08:00:35;;;;;;;;;;;;;;;10.14;100.00;100000.13;5074214;28;19916;-90
2023/10/31 08:03:01;;;;;;;;;;;;;;;10.81;100.00;100005.50;5079410;28;20355;-90
2023/10/31 08:05:27;;;;;;;;;;;;;;;12.54;100.00;100004.81;5109519;28;19959;-90
2023/10/31 08:07:52;;;;;;;;;;;;;;;14.31;100.00;100008.00;5093567;28;19916;-90
2023/10/31 08:10:17;;;;;;;;;;;;;;;15.05;100.00;100013.69;5109215;28;19912;-90
2023/10/31 08:12:42;;;;;;;;;;;;;;;15.49;99.81;100017.94;5092058;28;19920;-91
2023/10/31 08:17:55;;;;;;;;;;;;;;;14.56;100.00;100019.25;5073460;28;19918;-92
2023/10/31 08:20:39;;;;;;;;;;;;;;;14.24;100.00;100015.31;5071910;28;20284;-93
2023/10/31 08:23:04;;;;;;;;;;;;;;;14.50;98.77;100026.56;5074809;28;19912;-92
2023/10/31 08:25:29;;;;;;;;;;;;;;;15.15;97.06;100026.50;5088805;28;19939;-93
2023/10/31 08:27:55;;;;;;;;;;;;;;;15.96;96.14;100026.41;5074836;28;19919;-92
2023/10/31 08:30:20;;;;;;;;;;;;;;;16.69;95.20;100021.13;5075363;28;20002;-93
2023/10/31 08:33:05;;;;;;;;;;;;;;;16.51;92.20;100026.41;5092433;28;19934;-94
2023/10/31 08:38:42;;;;;;;;;;;;;;;14.66;97.03;100042.66;5093675;28;19919;-92
2023/10/31 08:41:08;;;;;;;;;;;;;;;14.03;98.44;100036.31;5108772;28;19920;-93
2023/10/31 08:43:36;;;;;;;;;;;;;;;13.57;99.58;100045.09;5098116;28;19961;-93
2023/10/31 08:46:02;;;;;;;;;;;;;;;14.02;100.00;100044.25;5072504;28;19913;-93
2023/10/31 08:48:27;;;;;;;;;;;;;;;14.17;99.81;100054.22;5072179;28;19919;-93
2023/10/31 08:50:53;;;;;;;;;;;;;;;13.90;100.00;100050.03;5071875;28;19916;-93
2023/10/31 08:53:19;;;;;;;;;;;;;;;13.57;100.00;100061.75;5082981;28;19912;-94
2023/10/31 08:55:47;;;;;;;;;;;;;;;13.48;100.00;100068.22;5092144;28;20391;-94
2023/10/31 08:58:13;;;;;;;;;;;;;;;13.29;100.00;100070.63;5086406;28;19916;-93
2023/10/31 09:00:40;;;;;;;;;;;;;;;13.05;100.00;100074.94;5109107;28;20613;-92
2023/10/31 09:03:08;;;;;;;;;;;;;;;12.89;100.00;100072.00;5093075;28;20287;-93
2023/10/31 09:05:33;;;;;;;;;;;;;;;12.79;100.00;100066.16;5092209;28;19919;-93
2023/10/31 09:08:01;;;;;;;;;;;;;;;12.45;100.00;100079.56;5076570;28;19912;-93
2023/10/31 09:10:27;;;;;;;;;;;;;;;12.38;100.00;100089.38;5071576;28;20010;-93
2023/10/31 09:12:53;;;;;;;;;;;;;;;12.31;100.00;100090.47;5088539;28;20003;-93
2023/10/31 09:15:18;;;;;;;;;;;;;;;12.33;100.00;100095.72;5089033;28;19959;-93
2023/10/31 09:17:51;;;;;;;;;;;;;;;12.18;100.00;100097.88;5088444;28;19913;-93
2023/10/31 09:20:17;;;;;;;;;;;;;;;12.06;100.00;100093.88;5073377;28;19952;-93
2023/10/31 09:22:42;;;;;;;;;;;;;;;11.96;100.00;100108.19;5058843;28;19963;-93
2023/10/31 09:25:07;;;;;;;;;;;;;;;11.96;100.00;100114.28;5075171;28;19948;-93
2023/10/31 09:27:33;;;;;;;;;;;;;;;11.95;100.00;100122.19;5092362;28;19924;-93
2023/10/31 09:30:04;;;;;;;;;;;;;;;12.35;100.00;100118.38;5075473;28;19924;-93
2023/10/31 09:32:29;;;;;;;;;;;;;;;12.78;100.00;100114.41;5075125;28;20003;-93
2023/10/31 09:35:16;;;;;;;;;;;;;;;13.00;100.00;100121.56;5075351;28;20409;-93
2023/10/31 09:37:42;;;;;;;;;;;;;;;13.13;100.00;100133.44;5074971;28;19919;-93
2023/10/31 09:40:08;;;;;;;;;;;;;;;13.40;99.98;100133.41;5080944;28;20006;-93
2023/10/31 09:42:36;;;;;;;;;;;;;;;13.91;97.96;100128.13;5115851;28;19911;-94
2023/10/31 09:45:10;;;;;;;;;;;;;;;14.83;94.74;100129.00;5115737;28;19919;-93
2023/10/31 09:47:38;;;;;;;;;;;;;;;14.98;97.00;100138.03;5099068;28;19916;-94
2023/10/31 09:50:03;;;;;;;;;;;;;;;14.82;94.45;100130.75;5098748;28;19912;-95
2023/10/31 09:52:31;;;;;;;;;;;;;;;14.80;95.79;100140.53;5098672;28;19984;-95
2023/10/31 09:54:57;;;;;;;;;;;;;;;15.00;93.17;100141.50;5098922;28;20010;-93
2023/10/31 09:57:23;;;;;;;;;;;;;;;15.04;93.11;100145.69;5121009;28;19908;-93
2023/10/31 09:59:48;;;;;;;;;;;;;;;15.20;91.76;100156.47;5123428;28;19976;-93
2023/10/31 10:02:14;;;;;;;;;;;;;;;15.01;94.58;100159.03;5123712;28;19912;-93
2023/10/31 10:04:45;;;;;;;;;;;;;;;14.56;94.83;100163.41;5113747;28;19924;-93
2023/10/31 10:07:13;;;;;;;;;;;;;;;13.98;94.89;100164.72;5123251;28;19955;-92
2023/10/31 10:09:39;;;;;;;;;;;;;;;13.54;96.94;100163.66;5123349;28;19927;-93
2023/10/31 10:12:09;;;;;;;;;;;;;;;13.17;99.72;100173.63;5140614;28;19920;-93
2023/10/31 10:14:37;;;;;;;;;;;;;;;12.89;98.91;100176.31;5140685;28;19930;-93
2023/10/31 10:17:13;;;;;;;;;;;;;;;12.73;98.96;100176.81;5106365;28;19908;-94
2023/10/31 10:19:39;;;;;;;;;;;;;;;12.65;99.31;100178.78;5123410;28;19945;-93
2023/10/31 10:22:04;;;;;;;;;;;;;;;12.62;100.00;100192.88;5122953;28;19919;-94
2023/10/31 10:24:30;;;;;;;;;;;;;;;12.63;100.00;100189.38;5136273;28;20294;-94
2023/10/31 10:26:58;;;;;;;;;;;;;;;12.85;100.00;100191.31;5133348;28;19918;-92
2023/10/31 10:29:23;;;;;;;;;;;;;;;12.83;99.58;100191.38;5106280;28;20351;-93
2023/10/31 10:31:49;;;;;;;;;;;;;;;12.70;100.00;100200.56;5122142;28;19919;-94
2023/10/31 10:34:15;;;;;;;;;;;;;;;12.64;99.96;100205.97;5140289;28;19939;-92
2023/10/31 10:36:48;;;;;;;;;;;;;;;12.58;99.91;100204.41;5122921;28;19916;-94
2023/10/31 10:39:21;;;;;;;;;;;;;;;12.62;100.00;100208.66;5123258;28;19908;-93
2023/10/31 10:41:51;;;;;;;;;;;;;;;12.55;99.86;100201.00;5123194;28;19923;-93
2023/10/31 10:44:27;;;;;;;;;;;;;;;12.52;99.27;100212.47;5123436;28;19949;-93
2023/10/31 10:46:55;;;;;;;;;;;;;;;12.59;100.00;100214.00;5107614;28;19970;-95
2023/10/31 10:49:24;;;;;;;;;;;;;;;12.64;100.00;100213.88;5103446;28;19916;-96
2023/10/31 10:55:04;;;;;;;;;;;;;;;12.81;99.69;100219.50;5119162;28;19964;-96
2023/10/31 11:00:50;;;;;;;;;;;;;;;12.69;99.78;100219.84;5076190;28;19923;-96
2023/10/31 11:03:17;;;;;;;;;;;;;;;12.65;99.94;100220.84;5059271;28;19913;-95
2023/10/31 11:15:00;;;;;;;;;;;;;;;12.42;100.00;100232.06;4994760;28;20389;-95
2023/10/31 11:17:34;;;;;;;;;;;;;;;12.36;100.00;100235.72;5051989;28;20391;-95
2023/10/31 11:20:00;;;;;;;;;;;;;;;12.37;100.00;100234.81;5056469;28;19960;-95
2023/10/31 11:22:25;;;;;;;;;;;;;;;12.45;100.00;100231.97;5056285;28;19912;-94
2023/10/31 11:24:51;;;;;;;;;;;;;;;12.40;100.00;100236.50;5056174;28;19913;-95
2023/10/31 11:27:17;;;;;;;;;;;;;;;12.37;100.00;100232.19;5057873;28;20364;-95
2023/10/31 11:29:42;;;;;;;;;;;;;;;12.42;100.00;100237.31;5057272;28;19917;-94
2023/10/31 11:32:11;;;;;;;;;;;;;;;12.42;100.00;100235.53;5056488;28;19912;-95
2023/10/31 11:34:40;;;;;;;;;;;;;;;12.42;99.34;100242.56;5056580;28;19916;-95
2023/10/31 11:37:38;;;;;;;;;;;;;;;12.26;99.78;100252.66;5056279;28;19935;-95
2023/10/31 11:40:22;;;;;;;;;;;;;;;12.12;99.80;100251.28;5013572;28;19927;-94
2023/10/31 11:42:50;;;;;;;;;;;;;;;12.10;100.00;100246.97;5097919;28;19916;-92
2023/10/31 11:45:29;;;;;;;;;;;;;;;12.00;100.00;100248.97;5097969;28;19912;-95
2023/10/31 11:47:58;;;;;;;;;;;;;;;11.95;100.00;100249.13;5096431;28;19961;-94
2023/10/31 11:50:27;;;;;;;;;;;;;;;11.98;100.00;100256.03;5097206;28;19916;-94
2023/10/31 11:53:12;;;;;;;;;;;;;;;11.95;100.00;100258.72;5096884;28;19911;-94
2023/10/31 11:55:41;;;;;;;;;;;;;;;11.97;100.00;100256.94;5097573;28;19916;-94
2023/10/31 11:58:23;;;;;;;;;;;;;;;11.98;100.00;100242.88;5096686;28;19964;-94
2023/10/31 12:00:49;;;;;;;;;;;;;;;12.13;100.00;100242.47;5097406;28;19912;-95
2023/10/31 12:03:21;;;;;;;;;;;;;;;12.35;99.72;100235.75;5097022;28;19911;-94
2023/10/31 12:05:53;;;;;;;;;;;;;;;12.39;99.49;100238.25;5097084;28;20270;-94
2023/10/31 12:08:34;;;;;;;;;;;;;;;12.54;99.49;100246.59;5096563;28;19915;-91
2023/10/31 12:11:06;;;;;;;;;;;;;;;12.75;99.52;100240.69;5096494;28;19915;-91
2023/10/31 12:13:31;;;;;;;;;;;;;;;12.97;99.53;100240.03;5096587;28;19923;-92
2023/10/31 12:16:01;;;;;;;;;;;;;;;13.17;97.67;100247.28;5079550;28;19916;-94
2023/10/31 12:18:27;;;;;;;;;;;;;;;13.34;96.83;100249.38;5095587;28;19916;-94
2023/10/31 12:20:52;;;;;;;;;;;;;;;13.47;96.12;100250.72;5096124;28;19911;-94
2023/10/31 12:23:18;;;;;;;;;;;;;;;13.47;95.21;100249.88;5095723;28;20419;-93
2023/10/31 12:25:49;;;;;;;;;;;;;;;13.52;94.05;100254.06;5096166;28;19912;-93
2023/10/31 12:28:18;;;;;;;;;;;;;;;13.50;95.16;100247.13;5114267;28;20260;-94
2023/10/31 12:30:45;;;;;;;;;;;;;;;13.56;96.04;100254.84;5095982;28;19954;-94
2023/10/31 12:33:10;;;;;;;;;;;;;;;14.18;95.45;100256.19;5095873;28;20391;-94
2023/10/31 12:35:39;;;;;;;;;;;;;;;14.87;90.69;100249.28;5096627;28;19912;-94
2023/10/31 12:38:05;;;;;;;;;;;;;;;14.77;90.87;100254.06;5096692;28;19912;-94
2023/10/31 12:40:39;;;;;;;;;;;;;;;14.65;92.72;100258.03;5092440;28;20030;-94
2023/10/31 12:43:09;;;;;;;;;;;;;;;14.56;92.51;100261.81;5075466;28;20372;-94
2023/10/31 12:45:35;;;;;;;;;;;;;;;14.50;92.05;100262.06;5092692;28;19995;-93
2023/10/31 12:48:08;;;;;;;;;;;;;;;14.45;88.88;100264.03;5091967;28;20025;-94
2023/10/31 12:50:40;;;;;;;;;;;;;;;14.30;86.63;100259.31;5092661;28;19956;-94
2023/10/31 12:53:13;;;;;;;;;;;;;;;14.40;87.62;100263.31;5091885;28;19923;-94
2023/10/31 12:55:40;;;;;;;;;;;;;;;15.00;85.68;100258.44;5095108;28;19912;-95
2023/10/31 12:58:14;;;;;;;;;;;;;;;14.82;85.18;100259.16;5097819;28;19912;-94
2023/10/31 13:01:03;;;;;;;;;;;;;;;14.37;88.01;100263.44;5096427;28;19939;-94
2023/10/31 13:06:35;;;;;;;;;;;;;;;13.96;90.49;100263.13;5062577;28;19973;-94
2023/10/31 13:09:05;;;;;;;;;;;;;;;13.95;91.16;100256.13;5080561;28;19919;-95
2023/10/31 13:11:46;;;;;;;;;;;;;;;13.97;90.53;100259.59;5079908;28;20326;-94
2023/10/31 13:17:19;;;;;;;;;;;;;;;13.92;90.46;100258.88;5097273;28;19939;-94
2023/10/31 13:22:49;;;;;;;;;;;;;;;13.65;91.89;100266.84;5097183;28;20321;-94
2023/10/31 13:28:18;;;;;;;;;;;;;;;13.37;92.87;100264.25;5097372;28;19920;-94
2023/10/31 13:30:45;;;;;;;;;;;;;;;13.27;91.13;100259.22;5095676;28;19912;-94
2023/10/31 13:33:11;;;;;;;;;;;;;;;13.10;92.74;100258.91;5095040;28;20348;-94
2023/10/31 13:38:39;;;;;;;;;;;;;;;12.99;94.32;100262.75;5097157;28;19931;-94
2023/10/31 13:41:21;;;;;;;;;;;;;;;12.94;95.37;100266.44;5095322;28;19916;-94
2023/10/31 13:43:57;;;;;;;;;;;;;;;12.88;94.85;100274.50;5095489;28;19916;-94
2023/10/31 13:46:37;;;;;;;;;;;;;;;12.83;95.60;100275.50;5095041;28;19951;-94
2023/10/31 13:49:17;;;;;;;;;;;;;;;12.79;95.50;100276.50;5094519;28;19961;-94
2023/10/31 13:54:48;;;;;;;;;;;;;;;12.76;96.13;100278.38;5096967;28;19923;-94
2023/10/31 13:57:29;;;;;;;;;;;;;;;;;;;;;
2023/10/31 14:00:00;;;;;;;;;;;;;;;12.65;95.67;100278.69;5096739;28;19912;-95
2023/10/31 14:02:25;;;;;;;;;;;;;;;12.72;92.92;100282.84;5095290;28;19919;-94
2023/10/31 14:04:58;;;;;;;;;;;;;;;12.52;94.02;100286.06;5095141;28;20283;-94
2023/10/31 14:07:31;;;;;;;;;;;;;;;12.47;94.97;100287.97;5090291;28;19912;-94
2023/10/31 14:10:03;;;;;;;;;;;;;;;12.46;95.31;100292.34;5095535;28;19912;-95
2023/10/31 14:12:35;;;;;;;;;;;;;;;12.47;94.55;100287.97;5078188;28;19916;-94
2023/10/31 14:15:05;;;;;;;;;;;;;;;12.27;95.30;100292.00;5095786;28;20314;-95
2023/10/31 14:17:31;;;;;;;;;;;;;;;12.20;95.05;100300.13;5094618;28;19935;-94
2023/10/31 14:20:04;;;;;;;;;;;;;;;12.07;94.89;100295.19;5096514;28;19912;-94
2023/10/31 14:22:30;;;;;;;;;;;;;;;11.99;95.36;100301.53;5077601;28;20008;-94
2023/10/31 14:25:27;;;;;;;;;;;;;;;;;;;;;
2023/10/31 14:27:56;;;;;;;;;;;;;;;11.86;96.32;100314.09;5096039;28;20279;-94
2023/10/31 14:30:27;;;;;;;;;;;;;;;11.91;94.42;100310.44;5089480;28;19957;-94
2023/10/31 14:33:10;;;;;;;;;;;;;;;11.75;95.25;100309.09;5094455;28;20042;-94
2023/10/31 14:35:44;;;;;;;;;;;;;;;11.75;94.36;100312.59;5080675;28;20010;-93